Time;durP1;ratioP1;P1;durP2;ratioP2;P2;SDS_P1;SDS_P2;PMS_P1;PMS_P2;Temp;Humidity;BMP_temperature;BMP_pressure;BME280_temperature;BME280_humidity;BME280_pressure;Samples;Min_cycle;Max_cycle;Signal;HPM_P1;HPM_P2
2021/12/13 00:01:10;;;;;;;0.55;0.50;;;8.10;99.90;;;;;;5073187;28;20078;-80
2021/12/13 00:04:01;;;;;;;3.33;0.82;;;8.00;99.90;;;;;;5073416;28;20051;-80
2021/12/13 00:06:46;;;;;;;0.60;0.60;;;8.00;99.90;;;;;;5072836;28;20024;-80
2021/12/13 00:09:18;;;;;;;0.30;0.30;;;8.00;99.90;;;;;;5071942;28;20025;-80
2021/12/13 00:11:56;;;;;;;0.40;0.40;;;8.00;99.90;;;;;;5071839;28;20031;-80
2021/12/13 00:14:27;;;;;;;0.50;0.50;;;8.10;99.90;;;;;;5073154;28;20025;-80
2021/12/13 00:17:08;;;;;;;0.40;0.40;;;8.30;99.90;;;;;;5073025;28;20031;-80
2021/12/13 00:20:03;;;;;;;0.40;0.40;;;8.30;99.90;;;;;;5073326;28;20086;-80
2021/12/13 00:22:37;;;;;;;1.60;0.55;;;8.30;99.90;;;;;;5072398;28;20443;-81
2021/12/13 00:25:17;;;;;;;0.40;0.40;;;8.30;99.90;;;;;;5073065;28;20016;-80
2021/12/13 00:27:49;;;;;;;0.40;0.40;;;8.30;99.90;;;;;;5072896;28;20488;-80
2021/12/13 00:30:28;;;;;;;0.47;0.47;;;8.30;99.90;;;;;;5072843;28;20021;-80
2021/12/13 00:33:32;;;;;;;0.80;0.40;;;8.20;99.90;;;;;;5072794;28;20040;-80
2021/12/13 00:36:05;;;;;;;1.10;0.40;;;8.20;99.90;;;;;;5072798;28;20516;-80
2021/12/13 00:38:51;;;;;;;0.80;0.52;;;8.10;99.90;;;;;;5071132;28;20487;-80
2021/12/13 00:41:20;;;;;;;;;;;8.00;99.90;;;;;;5073083;28;20028;-80
2021/12/13 00:44:05;;;;;;;0.30;0.30;;;8.00;99.90;;;;;;5071528;28;19908;-80
2021/12/13 00:46:32;;;;;;;0.50;0.40;;;8.00;99.90;;;;;;5072466;28;20036;-80
2021/12/13 00:49:05;;;;;;;0.40;0.40;;;8.00;99.90;;;;;;5072557;28;20747;-80
2021/12/13 00:51:50;;;;;;;1.48;0.50;;;7.90;99.90;;;;;;5072036;28;20062;-80
2021/12/13 00:54:23;;;;;;;0.82;0.60;;;7.90;99.90;;;;;;5072746;28;20087;-80
2021/12/13 00:57:00;;;;;;;0.40;0.40;;;8.00;99.90;;;;;;5072061;28;20496;-80
2021/12/13 00:59:47;;;;;;;0.63;0.40;;;8.00;99.90;;;;;;5072481;28;20036;-80
2021/12/13 01:02:28;;;;;;;0.45;0.45;;;8.00;99.90;;;;;;5072490;28;20338;-80
2021/12/13 01:04:56;;;;;;;0.50;0.50;;;8.00;99.90;;;;;;5072735;28;20017;-80
2021/12/13 01:07:41;;;;;;;0.40;0.40;;;8.00;99.90;;;;;;5071464;28;20060;-80
2021/12/13 01:10:41;;;;;;;0.50;0.50;;;7.90;99.90;;;;;;5070938;28;20024;-80
2021/12/13 01:13:27;;;;;;;0.40;0.40;;;7.90;99.90;;;;;;5062287;28;20471;-80
2021/12/13 01:16:21;;;;;;;2.80;0.75;;;7.90;99.90;;;;;;5072186;28;20052;-80
2021/12/13 01:19:23;;;;;;;0.63;0.45;;;8.00;99.90;;;;;;5072299;28;20507;-80
2021/12/13 01:21:55;;;;;;;0.50;0.50;;;8.20;99.90;;;;;;5071782;28;20052;-79
2021/12/13 01:24:53;;;;;;;0.30;0.30;;;8.40;99.90;;;;;;5072319;28;20070;-80
2021/12/13 01:27:28;;;;;;;1.42;0.60;;;8.60;99.90;;;;;;5072197;28;20035;-80
2021/12/13 01:29:54;;;;;;;0.85;0.40;;;8.60;99.90;;;;;;5072326;28;20016;-80
2021/12/13 01:32:33;;;;;;;0.50;0.50;;;8.70;99.90;;;;;;5070887;28;20538;-80
2021/12/13 01:34:59;;;;;;;2.10;0.45;;;8.70;99.90;;;;;;5072296;28;20027;-80
2021/12/13 01:37:32;;;;;;;0.73;0.55;;;8.70;99.90;;;;;;5071941;28;20485;-80
2021/12/13 01:40:06;;;;;;;0.63;0.40;;;8.80;99.90;;;;;;5072289;28;20035;-80
2021/12/13 01:42:32;;;;;;;0.60;0.60;;;8.80;99.90;;;;;;5072146;28;20035;-80
2021/12/13 01:45:05;;;;;;;0.40;0.40;;;8.80;99.90;;;;;;5072378;28;20016;-80
2021/12/13 01:47:37;;;;;;;0.38;0.38;;;8.80;99.90;;;;;;5070821;28;20032;-80
2021/12/13 01:50:17;;;;;;;0.50;0.50;;;9.00;99.90;;;;;;5051855;28;20484;-80
2021/12/13 01:52:47;;;;;;;0.70;0.70;;;8.90;99.90;;;;;;5056344;28;20019;-80
2021/12/13 01:55:24;;;;;;;0.57;0.57;;;9.00;99.90;;;;;;5071574;28;20032;-80
2021/12/13 01:58:07;;;;;;;0.50;0.50;;;9.10;99.90;;;;;;5070606;28;20044;-80
2021/12/13 02:03:43;;;;;;;0.35;0.35;;;9.20;99.90;;;;;;5055724;28;20496;-80
2021/12/13 02:06:39;;;;;;;0.30;0.30;;;9.10;99.90;;;;;;5055181;28;20381;-80
2021/12/13 02:09:08;;;;;;;;;;;9.10;99.90;;;;;;5052501;28;20033;-80
2021/12/13 02:11:40;;;;;;;0.40;0.40;;;9.20;99.90;;;;;;5064134;28;19912;-80
2021/12/13 02:14:13;;;;;;;0.35;0.35;;;9.20;99.90;;;;;;5074130;28;20037;-80
2021/12/13 02:17:11;;;;;;;0.43;0.43;;;9.20;99.90;;;;;;5075249;28;20074;-80
2021/12/13 02:20:04;;;;;;;0.32;0.32;;;9.20;99.90;;;;;;5075307;28;20028;-80
2021/12/13 02:22:42;;;;;;;0.50;0.50;;;9.30;99.90;;;;;;5075224;28;20031;-80
2021/12/13 02:25:20;;;;;;;0.38;0.38;;;9.30;99.90;;;;;;5074943;28;20017;-80
2021/12/13 02:27:54;;;;;;;0.47;0.47;;;9.30;99.90;;;;;;5074954;28;20492;-80
2021/12/13 02:30:38;;;;;;;0.50;0.50;;;9.40;99.90;;;;;;5075110;28;20020;-80
2021/12/13 02:33:16;;;;;;;0.50;0.50;;;9.40;99.90;;;;;;5074790;28;20425;-80
2021/12/13 02:35:47;;;;;;;0.47;0.40;;;9.40;99.90;;;;;;5073700;28;20044;-79
2021/12/13 02:38:19;;;;;;;0.32;0.32;;;9.40;99.90;;;;;;5074595;28;20112;-80
2021/12/13 02:40:45;;;;;;;0.50;0.50;;;9.40;99.90;;;;;;5074559;28;20030;-80
2021/12/13 02:43:16;;;;;;;0.95;0.47;;;9.40;99.90;;;;;;5074805;28;20480;-80
2021/12/13 02:45:47;;;;;;;2.08;0.50;;;9.40;99.90;;;;;;5074749;28;20353;-80
2021/12/13 02:48:30;;;;;;;0.40;0.40;;;9.40;99.90;;;;;;5074556;28;20083;-80
2021/12/13 02:51:02;;;;;;;0.50;0.50;;;9.30;99.90;;;;;;5060356;28;20476;-80
2021/12/13 02:54:13;;;;;;;2.05;0.35;;;9.40;99.90;;;;;;5073173;28;20384;-80
2021/12/13 02:56:47;;;;;;;1.20;0.63;;;9.30;99.90;;;;;;5074316;28;20551;-80
2021/12/13 02:59:14;;;;;;;0.55;0.55;;;9.30;99.90;;;;;;5074570;28;20028;-80
2021/12/13 03:02:11;;;;;;;0.35;0.35;;;9.30;99.90;;;;;;5074540;28;20028;-80
2021/12/13 03:04:37;;;;;;;0.60;0.60;;;9.20;99.90;;;;;;5074343;28;20031;-80
2021/12/13 03:07:18;;;;;;;1.10;0.50;;;9.20;99.90;;;;;;5073895;28;20082;-80
2021/12/13 03:09:46;;;;;;;0.60;0.60;;;9.20;99.90;;;;;;5071987;28;20123;-80
2021/12/13 03:12:26;;;;;;;0.40;0.40;;;9.20;99.90;;;;;;5074017;28;20515;-80
2021/12/13 03:14:58;;;;;;;0.60;0.60;;;9.20;99.90;;;;;;5073095;28;20025;-80
2021/12/13 03:18:06;;;;;;;0.50;0.50;;;9.30;99.90;;;;;;5072651;28;20032;-80
2021/12/13 03:20:50;;;;;;;0.52;0.52;;;9.30;99.90;;;;;;5053834;28;20039;-80
2021/12/13 03:23:48;;;;;;;0.40;0.40;;;9.40;99.90;;;;;;5073904;28;20028;-80
2021/12/13 03:26:37;;;;;;;0.50;0.50;;;9.40;99.90;;;;;;5073919;28;20071;-80
2021/12/13 03:29:21;;;;;;;0.50;0.50;;;9.30;99.90;;;;;;5072516;28;20038;-80
2021/12/13 03:31:52;;;;;;;0.73;0.60;;;9.30;99.90;;;;;;5072179;28;20036;-80
2021/12/13 03:34:24;;;;;;;0.55;0.40;;;9.40;99.90;;;;;;5073765;28;20021;-80
2021/12/13 03:36:58;;;;;;;0.50;0.50;;;9.40;99.90;;;;;;5073306;28;20132;-80
2021/12/13 03:40:01;;;;;;;0.50;0.50;;;9.40;99.90;;;;;;5073507;28;20477;-81
2021/12/13 03:42:30;;;;;;;1.08;0.40;;;9.30;99.90;;;;;;5046333;28;20041;-80
2021/12/13 03:45:04;;;;;;;0.50;0.50;;;9.40;99.90;;;;;;5073305;28;20111;-80
2021/12/13 03:47:38;;;;;;;0.40;0.40;;;9.30;99.90;;;;;;5073468;28;20086;-80
2021/12/13 03:50:36;;;;;;;0.40;0.40;;;9.40;99.90;;;;;;5072159;28;20033;-80
2021/12/13 03:53:24;;;;;;;0.40;0.40;;;9.40;99.90;;;;;;5071748;28;20025;-80
2021/12/13 03:55:56;;;;;;;2.17;0.40;;;9.40;99.90;;;;;;5073015;28;20032;-80
2021/12/13 03:58:23;;;;;;;0.40;0.40;;;9.50;99.90;;;;;;5071554;28;20101;-80
2021/12/13 04:00:57;;;;;;;0.85;0.70;;;9.40;99.90;;;;;;5071871;28;20038;-80
2021/12/13 04:03:25;;;;;;;0.60;0.60;;;9.50;99.90;;;;;;5072952;28;20086;-80
2021/12/13 04:06:04;;;;;;;0.30;0.30;;;9.50;99.90;;;;;;5072787;28;20025;-80
2021/12/13 04:08:31;;;;;;;0.47;0.45;;;9.50;99.90;;;;;;5073143;28;20489;-80
2021/12/13 04:11:08;;;;;;;0.77;0.77;;;9.50;99.90;;;;;;5071490;28;20029;-80
2021/12/13 04:13:38;;;;;;;0.52;0.52;;;9.50;99.90;;;;;;5072852;28;20132;-80
2021/12/13 04:16:15;;;;;;;0.50;0.50;;;9.60;99.90;;;;;;5072995;28;20031;-81
2021/12/13 04:19:18;;;;;;;1.15;1.05;;;9.50;99.90;;;;;;5072962;28;20426;-81
2021/12/13 04:21:49;;;;;;;0.50;0.50;;;9.50;99.90;;;;;;5065802;28;20032;-80
2021/12/13 04:24:31;;;;;;;0.52;0.52;;;9.40;99.90;;;;;;5073086;28;20028;-81
2021/12/13 04:27:03;;;;;;;0.60;0.60;;;9.40;99.90;;;;;;5072953;28;20483;-81
2021/12/13 04:29:37;;;;;;;0.45;0.45;;;9.30;99.90;;;;;;5071434;28;20451;-80
2021/12/13 04:32:11;;;;;;;0.50;0.50;;;9.20;99.90;;;;;;5072377;28;20047;-80
2021/12/13 04:34:41;;;;;;;0.60;0.60;;;9.20;99.90;;;;;;5072919;28;20032;-80
2021/12/13 04:37:15;;;;;;;0.70;0.60;;;9.20;99.90;;;;;;5072345;28;20028;-80
2021/12/13 04:39:42;;;;;;;2.22;0.47;;;9.20;99.90;;;;;;5072718;28;20108;-80
2021/12/13 04:42:17;;;;;;;0.47;0.47;;;9.10;99.90;;;;;;5072327;28;20032;-79
2021/12/13 04:45:03;;;;;;;0.57;0.57;;;9.20;99.90;;;;;;5072611;28;20885;-80
2021/12/13 04:47:54;;;;;;;0.57;0.57;;;9.20;99.90;;;;;;5072530;28;20035;-80
2021/12/13 04:50:44;;;;;;;0.43;0.43;;;9.10;99.90;;;;;;5071095;28;20031;-80
2021/12/13 04:53:21;;;;;;;0.40;0.40;;;9.10;99.90;;;;;;5072452;28;20082;-80
2021/12/13 04:55:48;;;;;;;0.40;0.40;;;9.10;99.90;;;;;;5072399;28;20067;-80
2021/12/13 04:58:16;;;;;;;0.40;0.40;;;9.20;99.90;;;;;;5072268;28;20041;-80
2021/12/13 05:00:47;;;;;;;0.50;0.50;;;9.30;99.90;;;;;;5072398;28;20029;-80
2021/12/13 05:03:15;;;;;;;0.60;0.60;;;9.40;99.90;;;;;;5072209;28;20027;-80
2021/12/13 05:05:42;;;;;;;0.40;0.40;;;9.40;99.90;;;;;;5072138;28;20025;-80
2021/12/13 05:08:11;;;;;;;0.60;0.60;;;9.50;99.90;;;;;;5071269;28;20023;-80
2021/12/13 05:10:37;;;;;;;0.60;0.52;;;9.50;99.90;;;;;;5070916;28;20035;-80
2021/12/13 05:13:13;;;;;;;0.70;0.70;;;9.50;99.90;;;;;;5072174;28;20031;-80
2021/12/13 05:15:41;;;;;;;0.77;0.75;;;9.50;99.90;;;;;;5072421;28;20179;-80
2021/12/13 05:18:19;;;;;;;0.57;0.57;;;9.50;99.90;;;;;;5072161;28;20033;-80
2021/12/13 05:20:45;;;;;;;2.05;0.90;;;9.40;99.90;;;;;;5071838;28;20028;-79
2021/12/13 05:23:19;;;;;;;0.50;0.50;;;9.50;99.90;;;;;;5071872;28;20175;-79
2021/12/13 05:25:57;;;;;;;0.75;0.52;;;9.50;99.90;;;;;;5072217;28;20027;-80
2021/12/13 05:28:27;;;;;;;0.60;0.60;;;9.50;99.90;;;;;;5070871;28;20127;-80
2021/12/13 05:30:59;;;;;;;0.70;0.70;;;9.50;99.90;;;;;;5072392;28;20021;-80
2021/12/13 05:33:28;;;;;;;2.45;0.50;;;9.50;99.90;;;;;;5072720;28;20033;-80
2021/12/13 05:35:59;;;;;;;0.70;0.70;;;9.40;99.90;;;;;;5075587;28;20035;-80
2021/12/13 05:38:30;;;;;;;2.50;0.43;;;9.30;99.90;;;;;;5075825;28;20031;-79
2021/12/13 05:40:59;;;;;;;0.52;0.52;;;9.30;99.90;;;;;;5076188;28;20033;-79
2021/12/13 05:43:28;;;;;;;0.60;0.60;;;9.40;99.90;;;;;;5075701;28;20025;-79
2021/12/13 05:46:02;;;;;;;1.40;0.70;;;9.40;99.90;;;;;;5074838;28;20029;-79
2021/12/13 05:48:33;;;;;;;0.50;0.50;;;9.40;99.90;;;;;;5091278;28;20478;-80
2021/12/13 05:51:07;;;;;;;0.60;0.60;;;9.40;99.90;;;;;;5074373;28;20027;-79
2021/12/13 05:53:55;;;;;;;0.70;0.70;;;9.40;99.90;;;;;;5075842;28;20024;-79
2021/12/13 05:56:21;;;;;;;0.98;0.77;;;9.30;99.90;;;;;;5075560;28;20043;-80
2021/12/13 05:58:56;;;;;;;0.52;0.52;;;9.20;99.90;;;;;;5075673;28;20020;-80
2021/12/13 06:01:29;;;;;;;0.52;0.52;;;9.10;99.90;;;;;;5084494;28;20078;-80
2021/12/13 06:04:07;;;;;;;0.60;0.60;;;9.00;99.90;;;;;;5095908;28;20036;-80
2021/12/13 06:06:55;;;;;;;0.95;0.60;;;8.90;99.90;;;;;;5095655;28;20055;-80
2021/12/13 06:09:48;;;;;;;0.60;0.60;;;8.80;99.90;;;;;;5095855;28;20537;-80
2021/12/13 06:12:51;;;;;;;0.60;0.60;;;8.70;99.90;;;;;;5055533;28;20029;-80
2021/12/13 06:15:16;;;;;;;0.65;0.65;;;8.60;99.90;;;;;;5046576;28;20392;-80
2021/12/13 06:17:59;;;;;;;0.60;0.60;;;8.50;99.90;;;;;;5077930;28;20024;-80
2021/12/13 06:21:14;;;;;;;0.52;0.52;;;8.50;99.90;;;;;;5095076;28;20529;-80
2021/12/13 06:23:40;;;;;;;0.52;0.52;;;8.50;99.90;;;;;;5055073;28;20035;-80
2021/12/13 06:26:13;;;;;;;0.60;0.60;;;8.30;99.90;;;;;;5054652;28;20025;-80
2021/12/13 06:28:58;;;;;;;0.70;0.70;;;8.30;99.90;;;;;;5072758;28;20027;-80
2021/12/13 06:31:39;;;;;;;0.60;0.60;;;8.30;99.90;;;;;;5073165;28;20032;-80
2021/12/13 06:34:09;;;;;;;0.77;0.77;;;8.30;99.90;;;;;;5066191;28;20357;-80
2021/12/13 06:36:42;;;;;;;2.33;0.88;;;8.20;99.90;;;;;;5076175;28;20491;-80
2021/12/13 06:39:17;;;;;;;0.98;0.98;;;8.20;99.90;;;;;;5074893;28;20024;-80
2021/12/13 06:41:46;;;;;;;4.28;1.25;;;8.20;99.90;;;;;;5091744;28;20506;-80
2021/12/13 06:44:32;;;;;;;2.05;1.30;;;8.20;99.90;;;;;;5083832;28;20025;-80
2021/12/13 06:47:01;;;;;;;3.72;1.75;;;8.40;99.90;;;;;;5080727;28;20036;-79
2021/12/13 06:49:39;;;;;;;2.15;1.63;;;8.40;99.90;;;;;;5092210;28;20392;-79
2021/12/13 06:52:08;;;;;;;1.67;1.58;;;8.60;99.90;;;;;;5082181;28;20119;-79
2021/12/13 06:54:39;;;;;;;1.10;1.00;;;8.60;99.90;;;;;;5075498;28;20020;-80
2021/12/13 06:57:31;;;;;;;0.93;0.93;;;8.80;99.90;;;;;;5074394;28;20056;-79
2021/12/13 07:00:21;;;;;;;0.88;0.88;;;8.90;99.90;;;;;;5074202;28;20099;-79
2021/12/13 07:02:53;;;;;;;1.17;1.15;;;8.90;99.90;;;;;;5060566;28;20488;-80
2021/12/13 07:05:22;;;;;;;1.40;1.30;;;8.80;99.90;;;;;;5055245;28;20389;-79
2021/12/13 07:08:08;;;;;;;1.17;1.17;;;8.90;99.90;;;;;;5090890;28;20034;-80
2021/12/13 07:10:40;;;;;;;0.85;0.85;;;8.90;99.90;;;;;;5087056;28;20091;-79
2021/12/13 07:13:32;;;;;;;3.80;1.00;;;9.00;99.90;;;;;;5086658;28;20104;-79
2021/12/13 07:16:05;;;;;;;0.80;0.80;;;9.00;99.90;;;;;;5086363;28;20109;-79
2021/12/13 07:18:49;;;;;;;1.27;1.00;;;9.10;99.90;;;;;;5074609;28;20165;-79
2021/12/13 07:21:55;;;;;;;0.93;0.93;;;9.20;99.90;;;;;;5097851;28;20032;-77
2021/12/13 07:24:43;;;;;;;1.27;1.17;;;9.30;99.90;;;;;;5058996;28;20056;-77
2021/12/13 07:27:10;;;;;;;1.00;1.00;;;9.30;99.90;;;;;;5073810;28;20031;-77
2021/12/13 07:29:42;;;;;;;2.33;1.00;;;9.30;99.90;;;;;;5061740;28;20025;-77
2021/12/13 07:32:16;;;;;;;1.08;0.98;;;9.40;99.90;;;;;;5069980;28;20028;-77
2021/12/13 07:35:02;;;;;;;1.13;1.10;;;9.50;99.90;;;;;;5073488;28;20028;-77
2021/12/13 07:37:42;;;;;;;1.00;1.00;;;9.50;99.90;;;;;;5060040;28;20029;-77
2021/12/13 07:40:22;;;;;;;1.10;1.10;;;9.60;99.90;;;;;;5082677;28;20391;-77
2021/12/13 07:43:18;;;;;;;0.90;0.90;;;9.70;99.90;;;;;;5075344;28;20078;-77
2021/12/13 07:45:44;;;;;;;1.10;1.10;;;9.70;99.90;;;;;;5062893;28;20024;-77
2021/12/13 07:48:21;;;;;;;1.67;1.20;;;9.70;99.90;;;;;;5088900;28;20095;-77
2021/12/13 07:51:01;;;;;;;1.10;1.10;;;9.80;99.90;;;;;;5073652;28;20047;-77
2021/12/13 07:53:35;;;;;;;1.45;1.23;;;9.80;99.90;;;;;;5066827;28;20043;-77
2021/12/13 07:56:01;;;;;;;1.70;1.60;;;9.80;99.90;;;;;;5071759;28;20062;-77
2021/12/13 07:58:43;;;;;;;1.60;1.50;;;9.80;99.90;;;;;;5073882;28;20048;-77
2021/12/13 08:01:23;;;;;;;1.00;1.00;;;9.80;99.90;;;;;;5090717;28;20023;-77
2021/12/13 08:03:59;;;;;;;4.80;2.13;;;9.80;99.90;;;;;;5061042;28;20025;-77
2021/12/13 08:06:42;;;;;;;1.40;1.30;;;9.80;99.90;;;;;;5087172;28;20024;-77
2021/12/13 08:09:12;;;;;;;1.40;1.30;;;9.80;99.90;;;;;;5085307;28;20435;-77
2021/12/13 08:11:53;;;;;;;1.50;1.40;;;9.80;99.90;;;;;;5073645;28;20502;-77
2021/12/13 08:14:32;;;;;;;2.60;1.60;;;9.80;99.90;;;;;;5087147;28;20551;-77
2021/12/13 08:17:10;;;;;;;1.52;1.42;;;9.80;99.90;;;;;;5075548;28;20020;-77
2021/12/13 08:19:36;;;;;;;1.77;1.67;;;9.90;99.90;;;;;;5089267;28;20028;-77
2021/12/13 08:22:04;;;;;;;1.85;1.75;;;9.90;99.90;;;;;;5070600;28;20767;-77
2021/12/13 08:24:39;;;;;;;2.33;2.13;;;9.80;99.90;;;;;;5083882;28;20068;-77
2021/12/13 08:27:13;;;;;;;1.73;1.63;;;9.80;99.90;;;;;;5073843;28;20036;-77
2021/12/13 08:29:40;;;;;;;2.10;1.90;;;9.90;99.90;;;;;;5075792;28;20027;-77
2021/12/13 08:32:18;;;;;;;1.73;1.63;;;9.90;99.90;;;;;;5069528;28;20102;-77
2021/12/13 08:34:49;;;;;;;1.90;1.80;;;9.90;99.90;;;;;;5072001;28;20028;-77
2021/12/13 08:37:29;;;;;;;1.90;1.73;;;9.90;99.90;;;;;;5078289;28;20029;-77
2021/12/13 08:40:12;;;;;;;1.48;1.30;;;10.00;99.90;;;;;;5051546;28;20025;-77
2021/12/13 08:42:43;;;;;;;1.63;1.52;;;9.90;99.90;;;;;;5072472;28;20218;-77
2021/12/13 08:45:17;;;;;;;1.52;1.42;;;10.00;99.90;;;;;;5070706;28;20021;-77
2021/12/13 08:47:53;;;;;;;4.80;2.10;;;10.00;99.90;;;;;;5052112;28;20044;-77
2021/12/13 08:50:31;;;;;;;2.40;2.20;;;9.90;99.90;;;;;;5051502;28;20025;-77
2021/12/13 08:53:15;;;;;;;2.20;2.00;;;9.90;99.90;;;;;;5073966;28;20107;-77
2021/12/13 08:55:50;;;;;;;2.30;2.10;;;9.80;99.90;;;;;;5068805;28;20056;-77
2021/12/13 08:58:19;;;;;;;1.95;1.80;;;9.90;99.90;;;;;;5066976;28;20044;-77
2021/12/13 09:01:04;;;;;;;2.53;2.00;;;9.90;99.90;;;;;;5071764;28;20044;-77
2021/12/13 09:03:39;;;;;;;2.72;1.88;;;9.90;99.90;;;;;;5056519;28;20025;-77
2021/12/13 09:06:07;;;;;;;1.70;1.60;;;10.00;99.90;;;;;;5071606;28;20055;-77
2021/12/13 09:08:57;;;;;;;1.52;1.20;;;10.00;99.90;;;;;;5074628;28;20042;-77
2021/12/13 09:11:38;;;;;;;4.43;1.70;;;10.00;99.90;;;;;;5084731;28;20056;-77
2021/12/13 09:14:13;;;;;;;1.60;1.50;;;9.90;99.90;;;;;;5066258;28;20405;-77
2021/12/13 09:17:07;;;;;;;1.70;1.60;;;9.90;99.90;;;;;;5088247;28;20058;-77
2021/12/13 09:19:58;;;;;;;1.50;1.40;;;9.90;99.90;;;;;;5082609;28;20027;-77
2021/12/13 09:22:31;;;;;;;2.63;2.28;;;10.00;99.90;;;;;;5060617;28;20537;-77
2021/12/13 09:25:03;;;;;;;2.00;1.80;;;10.10;99.90;;;;;;5095934;28;20028;-77
2021/12/13 09:27:55;;;;;;;1.80;1.70;;;10.20;99.90;;;;;;5074489;28;20029;-77
2021/12/13 09:30:57;;;;;;;2.05;1.90;;;10.20;99.90;;;;;;5092115;28;20404;-77
2021/12/13 09:33:30;;;;;;;1.67;1.58;;;10.10;99.90;;;;;;5071160;28;20028;-77
2021/12/13 09:35:58;;;;;;;1.67;1.58;;;10.20;99.90;;;;;;5062972;28;20358;-77
2021/12/13 09:38:33;;;;;;;2.50;1.95;;;10.10;99.90;;;;;;5075627;28;20032;-78
2021/12/13 09:41:05;;;;;;;2.30;2.00;;;10.10;99.90;;;;;;5074888;28;20029;-77
2021/12/13 09:43:56;;;;;;;1.90;1.75;;;10.10;99.90;;;;;;5075702;28;20270;-78
2021/12/13 09:46:32;;;;;;;3.90;1.67;;;10.00;99.90;;;;;;5075295;28;20033;-77
2021/12/13 09:48:59;;;;;;;2.25;2.05;;;9.90;99.90;;;;;;5075077;28;20031;-77
2021/12/13 09:51:32;;;;;;;2.58;2.28;;;9.90;99.90;;;;;;5075745;28;20039;-78
2021/12/13 09:54:03;;;;;;;3.53;2.13;;;9.90;99.90;;;;;;5083652;28;20099;-78
2021/12/13 09:56:36;;;;;;;3.17;2.78;;;9.80;99.90;;;;;;5081933;28;20405;-78
2021/12/13 09:59:14;;;;;;;3.78;2.97;;;9.80;99.90;;;;;;5075261;28;20544;-78
2021/12/13 10:01:41;;;;;;;3.67;2.95;;;9.80;99.90;;;;;;5073602;28;20073;-78
2021/12/13 10:04:11;;;;;;;3.08;2.15;;;9.80;99.90;;;;;;5074902;28;20017;-78
2021/12/13 10:06:48;;;;;;;2.85;2.58;;;9.80;99.90;;;;;;5075274;28;20024;-77
2021/12/13 10:09:21;;;;;;;2.47;1.85;;;9.80;99.90;;;;;;5075372;28;20028;-77
2021/12/13 10:11:55;;;;;;;2.10;1.90;;;9.90;99.90;;;;;;5075054;28;20029;-78
2021/12/13 10:14:32;;;;;;;1.92;1.80;;;10.00;99.90;;;;;;5075436;28;20430;-78
2021/12/13 10:17:00;;;;;;;1.90;1.65;;;9.90;99.90;;;;;;5075059;28;20544;-78
2021/12/13 10:19:36;;;;;;;2.03;1.65;;;10.00;99.90;;;;;;5090088;28;20028;-77
2021/12/13 10:22:05;;;;;;;2.65;1.50;;;10.00;99.90;;;;;;5085745;28;20024;-77
2021/12/13 10:24:44;;;;;;;2.67;1.50;;;10.10;99.90;;;;;;5074517;28;20041;-77
2021/12/13 10:27:14;;;;;;;1.83;1.73;;;10.10;99.90;;;;;;5058788;28;20463;-77
2021/12/13 10:29:49;;;;;;;1.50;1.40;;;10.00;99.90;;;;;;5068762;28;20047;-77
2021/12/13 10:32:27;;;;;;;1.48;1.38;;;10.10;99.90;;;;;;5077721;28;20115;-77
2021/12/13 10:34:57;;;;;;;1.58;1.48;;;10.10;99.90;;;;;;5066255;28;20025;-77
2021/12/13 10:37:36;;;;;;;1.98;1.60;;;10.10;99.90;;;;;;5064557;28;20028;-77
2021/12/13 10:40:13;;;;;;;1.60;1.50;;;10.10;99.90;;;;;;5083318;28;20073;-77
2021/12/13 10:42:51;;;;;;;1.27;1.20;;;10.10;99.90;;;;;;5091267;28;20142;-77
2021/12/13 10:45:23;;;;;;;1.05;1.00;;;10.10;99.90;;;;;;5085508;28;20029;-77
2021/12/13 10:47:53;;;;;;;1.30;1.20;;;10.10;99.90;;;;;;5079151;28;20024;-77
2021/12/13 10:50:31;;;;;;;1.10;1.10;;;10.20;99.90;;;;;;5079205;28;20069;-77
2021/12/13 10:52:58;;;;;;;0.95;0.95;;;10.10;99.90;;;;;;5092521;28;20228;-77
2021/12/13 10:55:33;;;;;;;1.35;1.25;;;10.10;99.90;;;;;;5078134;28;20162;-77
2021/12/13 10:58:02;;;;;;;1.20;1.10;;;10.10;99.90;;;;;;5065198;28;20139;-77
2021/12/13 11:00:34;;;;;;;1.00;1.00;;;10.10;99.90;;;;;;5074006;28;20094;-77
2021/12/13 11:03:05;;;;;;;1.27;1.20;;;10.10;99.90;;;;;;5074251;28;20021;-77
2021/12/13 11:05:31;;;;;;;1.50;1.10;;;10.10;99.90;;;;;;5073639;28;20481;-77
2021/12/13 11:07:59;;;;;;;1.02;1.02;;;10.10;99.90;;;;;;5075714;28;20036;-77
2021/12/13 11:10:37;;;;;;;1.27;1.05;;;10.10;99.90;;;;;;5073731;28;20036;-77
2021/12/13 11:13:03;;;;;;;1.35;1.00;;;10.10;99.90;;;;;;5073097;28;20541;-77
2021/12/13 11:15:37;;;;;;;1.50;1.40;;;10.10;99.90;;;;;;5074868;28;20035;-77
2021/12/13 11:18:08;;;;;;;1.30;1.20;;;10.10;99.90;;;;;;5079597;28;20082;-77
2021/12/13 11:20:42;;;;;;;3.30;1.00;;;10.10;99.90;;;;;;5073098;28;20037;-78
2021/12/13 11:23:08;;;;;;;1.52;1.40;;;10.00;99.90;;;;;;5079243;28;20035;-78
2021/12/13 11:25:46;;;;;;;3.55;1.35;;;10.00;99.90;;;;;;5072954;28;20024;-77
2021/12/13 11:28:13;;;;;;;1.55;1.15;;;10.10;99.90;;;;;;5056852;28;20381;-77
2021/12/13 11:30:40;;;;;;;2.30;1.40;;;10.10;99.90;;;;;;5074671;28;20020;-77
2021/12/13 11:33:09;;;;;;;3.58;1.27;;;10.00;99.90;;;;;;5073746;28;20024;-77
2021/12/13 11:35:54;;;;;;;2.10;1.38;;;10.10;99.90;;;;;;5072319;28;20450;-77
2021/12/13 11:38:48;;;;;;;1.50;1.40;;;10.10;99.90;;;;;;5084635;28;20108;-77
2021/12/13 11:41:59;;;;;;;3.85;1.67;;;10.10;99.90;;;;;;5051936;28;20033;-77
2021/12/13 11:45:02;;;;;;;1.70;1.60;;;10.20;99.90;;;;;;5022398;28;20484;-77
2021/12/13 11:47:44;;;;;;;1.52;1.42;;;10.20;99.90;;;;;;5060930;28;20582;-77
2021/12/13 11:50:39;;;;;;;1.50;1.40;;;10.10;99.90;;;;;;5071788;28;20029;-78
2021/12/13 11:53:23;;;;;;;2.00;1.80;;;10.20;99.90;;;;;;5044682;28;20037;-78
2021/12/13 11:56:26;;;;;;;2.28;2.08;;;10.10;99.90;;;;;;5092179;28;20051;-78
2021/12/13 11:59:26;;;;;;;1.75;1.65;;;10.10;99.90;;;;;;5093243;28;20043;-78
2021/12/13 12:02:21;;;;;;;1.60;1.50;;;10.10;99.90;;;;;;5092776;28;20289;-78
2021/12/13 12:05:12;;;;;;;2.00;1.80;;;10.10;99.90;;;;;;5092747;28;20422;-77
2021/12/13 12:08:23;;;;;;;1.98;1.77;;;10.10;99.90;;;;;;5087208;28;20028;-77
2021/12/13 12:10:59;;;;;;;1.83;1.73;;;10.10;99.90;;;;;;5071230;28;20017;-77
2021/12/13 12:13:51;;;;;;;4.55;1.88;;;10.00;99.90;;;;;;5054175;28;20052;-77
2021/12/13 12:16:24;;;;;;;1.80;1.70;;;10.10;99.90;;;;;;5063848;28;20032;-77
2021/12/13 12:18:51;;;;;;;2.05;1.85;;;10.10;99.90;;;;;;5053054;28;20710;-77
2021/12/13 12:21:36;;;;;;;5.35;2.30;;;10.10;99.90;;;;;;5075803;28;20471;-77
2021/12/13 12:24:09;;;;;;;2.58;2.10;;;10.10;99.90;;;;;;5080786;28;20388;-77
2021/12/13 12:26:36;;;;;;;2.58;2.00;;;10.10;99.90;;;;;;5073481;28;20035;-77
2021/12/13 12:29:08;;;;;;;5.90;2.72;;;10.10;99.90;;;;;;5056497;28;20017;-77
2021/12/13 12:31:43;;;;;;;3.22;2.92;;;10.10;99.90;;;;;;5069549;28;20422;-77
2021/12/13 12:34:10;;;;;;;3.17;2.72;;;10.20;99.90;;;;;;5072472;28;20021;-77
2021/12/13 12:37:08;;;;;;;7.10;3.03;;;10.20;99.90;;;;;;5054147;28;20056;-77
2021/12/13 12:39:56;;;;;;;3.38;2.45;;;10.20;99.90;;;;;;5064765;28;20425;-77
2021/12/13 12:42:25;;;;;;;3.05;2.72;;;10.20;99.90;;;;;;5066521;28;20029;-77
2021/12/13 12:44:56;;;;;;;2.58;2.38;;;10.20;99.90;;;;;;5067800;28;20031;-77
2021/12/13 12:47:34;;;;;;;3.33;2.80;;;10.30;99.90;;;;;;5068502;28;20524;-77
2021/12/13 12:50:27;;;;;;;2.58;2.10;;;10.30;99.90;;;;;;5070493;28;20017;-77
2021/12/13 12:53:14;;;;;;;2.40;2.17;;;10.20;99.90;;;;;;5069231;28;20043;-77
2021/12/13 12:55:46;;;;;;;2.25;2.05;;;10.30;99.90;;;;;;5066116;28;20048;-77
2021/12/13 12:58:26;;;;;;;2.00;1.90;;;10.30;99.90;;;;;;5087517;28;20052;-77
2021/12/13 13:00:54;;;;;;;2.95;2.30;;;10.30;99.90;;;;;;5069927;28;20036;-77
2021/12/13 13:03:36;;;;;;;2.88;2.42;;;10.30;99.90;;;;;;5072251;28;20033;-77
2021/12/13 13:06:24;;;;;;;2.10;1.90;;;10.30;99.90;;;;;;5067255;28;20032;-77
2021/12/13 13:08:52;;;;;;;2.47;1.80;;;10.30;99.90;;;;;;5066935;28;20031;-77
2021/12/13 13:11:35;;;;;;;1.67;1.55;;;10.30;99.90;;;;;;5068058;28;20021;-77
2021/12/13 13:14:10;;;;;;;1.60;1.50;;;10.40;99.90;;;;;;5067487;28;20056;-77
2021/12/13 13:16:41;;;;;;;1.90;1.80;;;10.30;99.90;;;;;;5071358;28;20055;-77
2021/12/13 13:19:09;;;;;;;2.05;1.90;;;10.40;99.90;;;;;;5069272;28;20528;-77
2021/12/13 13:21:44;;;;;;;1.63;1.52;;;10.40;99.90;;;;;;5070149;28;20634;-77
2021/12/13 13:24:10;;;;;;;2.55;2.08;;;10.40;99.90;;;;;;5070742;28;20036;-77
2021/12/13 13:26:36;;;;;;;2.88;2.67;;;10.40;99.90;;;;;;5056857;28;20048;-77
2021/12/13 13:29:07;;;;;;;3.88;3.08;;;10.40;99.90;;;;;;5051998;28;20025;-77
2021/12/13 13:31:53;;;;;;;3.90;2.80;;;10.40;99.90;;;;;;5052265;28;20079;-77
2021/12/13 13:34:27;;;;;;;5.30;3.90;;;10.40;99.90;;;;;;5051692;28;20032;-77
2021/12/13 13:36:56;;;;;;;4.55;3.42;;;10.40;99.90;;;;;;5066039;28;20424;-77
2021/12/13 13:39:33;;;;;;;6.35;4.28;;;10.40;99.90;;;;;;5072080;28;20038;-77
2021/12/13 13:42:10;;;;;;;4.63;3.90;;;10.40;99.90;;;;;;5070780;28;20089;-77
2021/12/13 13:44:43;;;;;;;6.55;5.05;;;10.40;99.90;;;;;;5071790;28;20024;-77
2021/12/13 13:47:14;;;;;;;5.18;4.65;;;10.40;99.90;;;;;;5071392;28;20028;-78
2021/12/13 13:49:40;;;;;;;8.25;5.97;;;10.40;99.90;;;;;;5077735;28;20416;-77
2021/12/13 13:52:29;;;;;;;6.28;5.15;;;10.40;99.90;;;;;;5076746;28;20028;-77